Time;durP1;ratioP1;P1;durP2;ratioP2;P2;SDS_P1;SDS_P2;PMS_P1;PMS_P2;Temp;Humidity;BMP_temperature;BMP_pressure;BME280_temperature;BME280_humidity;BME280_pressure;Samples;Min_cycle;Max_cycle;Signal;HPM_P1;HPM_P2
2021/08/08 00:02:03;;;;;;;20.98;9.18;;;;;;;21.92;52.90;99339.38;5095189;28;20382;-73
2021/08/08 00:04:29;;;;;;;20.48;9.30;;;;;;;21.91;53.37;99335.03;5094873;28;20489;-73
2021/08/08 00:06:55;;;;;;;22.83;9.60;;;;;;;21.90;53.21;99333.38;5094933;28;20047;-72
2021/08/08 00:09:21;;;;;;;27.52;10.07;;;;;;;21.84;53.72;99340.38;5094717;28;20047;-72
2021/08/08 00:11:47;;;;;;;22.95;9.85;;;;;;;21.79;53.61;99349.06;5094900;28;20051;-75
2021/08/08 00:14:14;;;;;;;23.48;9.30;;;;;;;21.77;53.96;99351.13;5094538;28;20078;-71
2021/08/08 00:16:39;;;;;;;20.98;9.02;;;;;;;21.75;53.72;99347.78;5094619;28;20039;-71
2021/08/08 00:19:05;;;;;;;22.15;9.35;;;;;;;21.70;53.90;99349.44;5094402;28;20040;-72
2021/08/08 00:21:31;;;;;;;17.98;8.93;;;;;;;21.65;53.93;99347.34;5094502;28;20043;-71
2021/08/08 00:23:57;;;;;;;24.17;8.73;;;;;;;21.64;53.84;99351.03;5092606;28;20047;-72
2021/08/08 00:26:23;;;;;;;30.47;9.07;;;;;;;21.64;53.93;99351.03;5093507;28;20044;-74
2021/08/08 00:28:57;;;;;;;24.77;9.82;;;;;;;21.59;54.32;99353.50;5076763;28;20047;-75
2021/08/08 00:31:24;;;;;;;26.80;9.85;;;;;;;21.59;54.44;99348.13;5075622;28;20066;-72
2021/08/08 00:34:05;;;;;;;24.88;9.30;;;;;;;21.56;54.44;99356.56;5077105;28;20526;-71
2021/08/08 00:36:33;;;;;;;23.23;9.13;;;;;;;21.56;54.21;99356.56;5075465;28;20152;-71
2021/08/08 00:39:00;;;;;;;19.00;9.27;;;;;;;21.54;54.37;99345.16;5076188;28;20040;-74
2021/08/08 00:41:28;;;;;;;20.55;8.57;;;;;;;21.52;53.93;99357.97;5075720;28;20497;-73
2021/08/08 00:43:54;;;;;;;20.42;8.65;;;;;;;21.50;54.31;99342.84;5075726;28;20055;-73
2021/08/08 00:46:20;;;;;;;21.08;9.23;;;;;;;21.47;54.65;99358.56;5075901;28;20048;-70
2021/08/08 00:48:46;;;;;;;19.35;8.93;;;;;;;21.45;54.44;99369.53;5076146;28;20044;-72
2021/08/08 00:51:17;;;;;;;20.73;8.23;;;;;;;21.44;54.56;99367.03;5075946;28;20082;-70
2021/08/08 00:53:46;;;;;;;20.75;9.20;;;;;;;21.41;54.63;99365.59;5075820;28;20051;-72
2021/08/08 00:56:12;;;;;;;23.33;8.85;;;;;;;21.44;54.47;99367.03;5075574;28;20043;-71
2021/08/08 00:58:38;;;;;;;21.63;8.45;;;;;;;21.44;53.95;99367.88;5059325;28;20051;-71
2021/08/08 01:01:06;;;;;;;25.38;9.40;;;;;;;21.54;54.73;99350.56;5093847;28;20127;-75
2021/08/08 01:03:34;;;;;;;26.58;9.32;;;;;;;21.55;54.38;99363.81;5058688;28;20447;-71
2021/08/08 01:06:27;;;;;;;23.63;8.55;;;;;;;21.45;54.99;99369.53;5075618;28;20382;-71
2021/08/08 01:08:56;;;;;;;19.67;7.80;;;;;;;21.39;54.75;99381.09;5075685;28;20448;-69
2021/08/08 01:11:23;;;;;;;26.23;9.05;;;;;;;21.37;54.84;99375.09;5075368;28;20128;-69
2021/08/08 01:13:51;;;;;;;27.25;8.77;;;;;;;21.36;54.89;99376.09;5075079;28;20078;-72
2021/08/08 01:16:19;;;;;;;18.45;8.75;;;;;;;21.33;55.14;99371.94;5075155;28;20047;-69
2021/08/08 01:18:46;;;;;;;24.13;9.18;;;;;;;21.31;55.63;99378.56;5093054;28;20040;-71
2021/08/08 01:21:12;;;;;;;15.67;8.07;;;;;;;21.30;54.46;99382.28;5058657;28;20050;-70
2021/08/08 01:23:39;;;;;;;14.23;8.43;;;;;;;21.34;54.77;99386.22;5058678;28;20511;-69
2021/08/08 01:26:06;;;;;;;20.65;8.63;;;;;;;21.39;54.47;99381.09;5075293;28;20074;-70
2021/08/08 01:28:32;;;;;;;17.57;7.50;;;;;;;21.42;54.50;99378.00;5074974;28;20055;-73
2021/08/08 01:30:59;;;;;;;19.48;8.27;;;;;;;21.39;54.60;99391.84;5074782;28;20365;-71
2021/08/08 01:33:26;;;;;;;21.15;8.32;;;;;;;21.35;54.01;99395.97;5074125;28;20044;-70
2021/08/08 01:35:59;;;;;;;18.58;8.40;;;;;;;21.36;54.44;99403.00;5074808;28;20047;-72
2021/08/08 01:38:29;;;;;;;20.60;8.13;;;;;;;21.37;54.87;99382.31;5074812;28;20404;-73
2021/08/08 01:41:02;;;;;;;22.90;9.00;;;;;;;21.40;54.61;99382.75;5074889;28;20137;-71
2021/08/08 01:43:39;;;;;;;20.92;8.75;;;;;;;21.35;55.44;99377.13;5074858;28;20055;-70
2021/08/08 01:46:07;;;;;;;16.88;8.77;;;;;;;21.37;55.39;99393.91;5057520;28;20054;-70
2021/08/08 01:48:44;;;;;;;19.80;8.75;;;;;;;21.35;55.75;99377.13;5059221;28;20040;-70
2021/08/08 01:51:11;;;;;;;20.08;8.90;;;;;;;21.28;56.02;99373.56;5074706;28;20394;-70
2021/08/08 01:53:39;;;;;;;21.80;8.88;;;;;;;21.23;55.83;99392.13;5074660;28;20446;-72
2021/08/08 01:56:06;;;;;;;19.60;8.52;;;;;;;21.15;55.95;99385.88;5074671;28;20095;-73
2021/08/08 01:58:35;;;;;;;17.17;7.85;;;;;;;21.14;55.53;99386.88;5058022;28;20075;-71
2021/08/08 02:01:07;;;;;;;18.02;8.57;;;;;;;21.11;55.49;99406.13;5069916;28;20125;-72
2021/08/08 02:03:35;;;;;;;17.58;8.30;;;;;;;21.11;55.70;99407.97;5053787;28;20401;-71
2021/08/08 02:06:04;;;;;;;18.20;8.80;;;;;;;21.09;56.22;99405.47;5053560;28;20047;-72
2021/08/08 02:08:30;;;;;;;25.80;9.68;;;;;;;21.04;56.22;99420.53;5053843;28;20041;-70
2021/08/08 02:11:07;;;;;;;23.38;10.20;;;;;;;20.99;56.84;99418.41;5054445;28;20127;-69
2021/08/08 02:13:43;;;;;;;18.90;8.73;;;;;;;20.94;56.82;99427.06;5070921;28;20474;-70
2021/08/08 02:16:09;;;;;;;22.50;9.10;;;;;;;20.92;57.15;99433.66;5071107;28;20059;-70
2021/08/08 02:18:37;;;;;;;28.30;10.10;;;;;;;20.91;57.50;99448.97;5054011;28;20409;-72
2021/08/08 02:21:03;;;;;;;20.27;9.00;;;;;;;20.94;57.06;99453.13;5072375;28;20136;-69
2021/08/08 02:23:30;;;;;;;20.35;9.52;;;;;;;20.92;56.65;99471.28;5053969;28;20082;-71
2021/08/08 02:26:00;;;;;;;20.42;10.45;;;;;;;20.85;57.31;99485.50;5053936;28;20197;-70
2021/08/08 02:28:30;;;;;;;19.10;9.27;;;;;;;20.79;57.99;99486.25;5053930;28;20036;-71
2021/08/08 02:30:56;;;;;;;20.50;9.75;;;;;;;20.75;58.00;99487.66;5054311;28;20044;-71
2021/08/08 02:33:26;;;;;;;21.88;9.27;;;;;;;20.73;58.25;99507.69;5054000;28;20098;-69
2021/08/08 02:35:52;;;;;;;22.10;9.27;;;;;;;20.71;58.84;99507.88;5053902;28;20044;-70
2021/08/08 02:38:20;;;;;;;40.97;22.00;;;;;;;20.66;58.72;99488.75;5053939;28;20131;-71
2021/08/08 02:40:51;;;;;;;23.52;10.02;;;;;;;20.65;58.88;99498.69;5054151;28;20049;-70
2021/08/08 02:43:17;;;;;;;20.33;9.38;;;;;;;20.68;59.43;99503.66;5070382;28;20098;-69
2021/08/08 02:45:42;;;;;;;21.88;9.45;;;;;;;20.72;59.12;99490.72;5071940;28;20052;-70
2021/08/08 02:48:11;;;;;;;21.27;9.45;;;;;;;20.72;59.96;99496.09;5070224;28;20059;-70
2021/08/08 02:50:37;;;;;;;23.80;9.50;;;;;;;20.69;60.64;99483.00;5053537;28;20044;-72
2021/08/08 02:53:04;;;;;;;25.08;9.80;;;;;;;20.65;61.23;99470.97;5070670;28;20046;-71
2021/08/08 02:55:30;;;;;;;23.08;9.85;;;;;;;20.60;62.28;99462.63;5053465;28;20040;-70
2021/08/08 02:58:01;;;;;;;20.15;9.77;;;;;;;20.55;62.75;99436.34;5071627;28;20040;-72
2021/08/08 03:00:30;;;;;;;23.05;9.73;;;;;;;20.52;63.12;99442.94;5057669;28;20500;-71
2021/08/08 03:02:56;;;;;;;20.27;9.80;;;;;;;20.49;63.86;99434.41;5074603;28;20057;-73
2021/08/08 03:05:22;;;;;;;21.23;10.50;;;;;;;20.46;63.96;99434.78;5074458;28;20041;-72
2021/08/08 03:07:49;;;;;;;24.00;9.95;;;;;;;20.34;65.35;99421.03;5058039;28;20087;-72
2021/08/08 03:10:16;;;;;;;23.52;10.82;;;;;;;20.30;65.55;99398.22;5041203;28;20059;-72
2021/08/08 03:12:43;;;;;;;21.02;10.45;;;;;;;20.27;65.53;99410.19;5057808;28;20059;-73
2021/08/08 03:15:10;;;;;;;21.42;10.68;;;;;;;20.26;66.56;99402.31;5040646;28;20429;-71
2021/08/08 03:17:36;;;;;;;21.25;10.23;;;;;;;20.25;65.40;99400.66;5056744;28;20065;-75
2021/08/08 03:20:03;;;;;;;20.48;10.05;;;;;;;20.10;67.61;99408.72;5075679;28;20040;-72
2021/08/08 03:22:30;;;;;;;26.17;11.60;;;;;;;19.67;69.49;99425.47;5057624;28;20056;-72
2021/08/08 03:24:58;;;;;;;36.90;12.73;;;;;;;19.51;68.64;99440.69;5057462;28;20508;-71
2021/08/08 03:27:23;;;;;;;59.38;14.73;;;;;;;19.47;68.79;99420.63;5075504;28;20041;-69
2021/08/08 03:29:50;;;;;;;31.25;12.63;;;;;;;19.44;68.89;99430.88;5075903;28;20040;-72
2021/08/08 03:32:16;;;;;;;32.90;12.98;;;;;;;19.41;69.06;99416.00;5074338;28;20041;-71
2021/08/08 03:34:42;;;;;;;26.67;12.50;;;;;;;19.44;67.69;99428.19;5060576;28;20040;-74
2021/08/08 03:37:10;;;;;;;27.50;12.52;;;;;;;19.47;68.11;99447.44;5078102;28;20051;-73
2021/08/08 03:39:37;;;;;;;37.97;12.02;;;;;;;19.45;68.22;99454.00;5077505;28;20044;-69
2021/08/08 03:42:05;;;;;;;20.38;11.52;;;;;;;19.44;67.77;99473.78;5077171;28;20047;-73
2021/08/08 03:44:31;;;;;;;;;;;;;;;19.42;68.03;99467.81;5095463;28;20052;-73
2021/08/08 03:46:58;;;;;;;26.90;10.52;;;;;;;19.40;67.73;99450.03;5077172;28;19916;-72
2021/08/08 03:49:24;;;;;;;28.30;10.57;;;;;;;19.47;67.46;99473.44;5077049;28;20040;-72
2021/08/08 03:51:50;;;;;;;22.27;11.10;;;;;;;19.48;67.47;99484.00;5076632;28;20063;-71
2021/08/08 03:54:16;;;;;;;24.80;10.90;;;;;;;19.53;66.94;99478.09;5076925;28;20173;-73
2021/08/08 03:56:42;;;;;;;19.65;10.70;;;;;;;19.60;66.00;99470.13;5076855;28;20048;-73
2021/08/08 03:59:09;;;;;;;25.13;10.93;;;;;;;19.70;65.36;99470.69;5076862;28;20055;-74
2021/08/08 04:01:37;;;;;;;;;;;;;;;19.79;64.74;99466.09;5077112;28;20480;-73
2021/08/08 04:04:04;;;;;;;19.75;10.20;;;;;;;19.83;64.70;99462.88;5077165;28;19916;-71
2021/08/08 04:06:30;;;;;;;26.80;10.82;;;;;;;19.95;65.97;99462.44;5076742;28;20047;-74
2021/08/08 04:08:57;;;;;;;28.07;11.17;;;;;;;20.01;66.13;99472.44;5076332;28;20540;-75
2021/08/08 04:11:23;;;;;;;22.50;10.60;;;;;;;20.04;64.33;99469.38;5076551;28;20044;-72
2021/08/08 04:13:49;;;;;;;24.77;12.10;;;;;;;20.15;64.96;99479.66;5076498;28;20060;-72
2021/08/08 04:16:15;;;;;;;24.17;11.63;;;;;;;20.17;66.20;99474.91;5076410;28;20101;-73
2021/08/08 04:18:41;;;;;;;24.95;11.25;;;;;;;20.06;67.10;99475.38;5094473;28;20512;-73
2021/08/08 04:21:07;;;;;;;28.35;12.57;;;;;;;19.95;67.75;99471.34;5076301;28;20512;-72
2021/08/08 04:23:52;;;;;;;24.83;11.27;;;;;;;19.97;68.04;99471.13;5094574;28;20120;-72
2021/08/08 04:26:18;;;;;;;28.83;12.52;;;;;;;20.10;68.10;99463.28;5076325;28;20043;-69
2021/08/08 04:28:44;;;;;;;27.45;12.10;;;;;;;20.28;67.50;99459.38;5076259;28;20098;-76
2021/08/08 04:31:11;;;;;;;32.67;11.93;;;;;;;20.48;67.18;99462.31;5076602;28;20047;-75
2021/08/08 04:33:39;;;;;;;24.38;12.00;;;;;;;20.67;67.11;99459.03;5076199;28;20089;-75
2021/08/08 04:36:05;;;;;;;22.77;12.35;;;;;;;20.83;65.98;99462.50;5094484;28;20530;-74
2021/08/08 04:38:31;;;;;;;25.63;12.60;;;;;;;20.90;64.85;99457.19;5075979;28;20047;-71
2021/08/08 04:40:57;;;;;;;25.75;14.02;;;;;;;21.06;65.17;99456.97;5075767;28;20044;-76
2021/08/08 04:43:23;;;;;;;27.30;13.73;;;;;;;21.19;65.72;99460.81;5076331;28;20040;-74
2021/08/08 04:46:51;;;;;;;28.02;13.50;;;;;;;21.41;65.21;99470.53;5190057;27;20670;-74
2021/08/08 04:49:17;;;;;;;24.23;12.15;;;;;;;21.47;63.35;99469.75;5134524;27;20125;-74
2021/08/08 04:51:43;;;;;;;27.33;12.85;;;;;;;21.53;63.62;99472.69;5151923;27;20046;-74
2021/08/08 04:54:09;;;;;;;27.05;11.98;;;;;;;21.57;61.91;99471.28;5152010;27;20042;-75
2021/08/08 04:56:35;;;;;;;23.33;12.75;;;;;;;21.63;62.52;99484.81;5151348;27;20060;-74
2021/08/08 04:59:01;;;;;;;27.05;11.85;;;;;;;21.46;62.34;99478.84;5148933;27;20176;-75
2021/08/08 05:01:27;;;;;;;27.85;12.10;;;;;;;21.36;62.19;99489.09;5151043;27;20117;-70
2021/08/08 05:03:53;;;;;;;26.95;12.07;;;;;;;21.34;61.77;99496.53;5151074;27;20050;-72
2021/08/08 05:06:19;;;;;;;31.30;12.57;;;;;;;21.31;62.66;99499.63;5169908;27;20372;-73
2021/08/08 05:08:44;;;;;;;32.00;12.93;;;;;;;21.40;64.06;99511.06;5169960;27;20047;-71
2021/08/08 05:11:16;;;;;;;32.08;13.38;;;;;;;21.74;64.27;99501.44;5151460;27;20555;-72
2021/08/08 05:13:46;;;;;;;35.33;14.00;;;;;;;22.14;62.99;99499.00;5148770;27;20042;-71
2021/08/08 05:16:13;;;;;;;35.88;13.90;;;;;;;22.83;61.68;99513.44;5151264;27;20034;-72
2021/08/08 05:18:39;;;;;;;30.97;13.83;;;;;;;23.68;59.07;99506.75;5151079;27;20053;-72
2021/08/08 05:21:05;;;;;;;31.75;15.50;;;;;;;24.18;55.63;99517.91;5151206;27;20298;-71
2021/08/08 05:23:31;;;;;;;39.38;16.30;;;;;;;24.94;53.97;99515.56;5169641;27;20502;-73
2021/08/08 05:25:59;;;;;;;28.90;12.75;;;;;;;24.67;53.33;99526.53;5150774;27;20479;-73
2021/08/08 05:28:26;;;;;;;22.25;11.85;;;;;;;24.10;54.39;99526.25;5150762;27;20110;-73
2021/08/08 05:30:53;;;;;;;23.63;12.40;;;;;;;23.74;55.24;99532.94;5150755;27;20038;-74
2021/08/08 05:33:18;;;;;;;26.65;13.15;;;;;;;23.37;56.23;99536.00;5169552;27;20510;-73
2021/08/08 05:35:44;;;;;;;24.38;11.70;;;;;;;23.17;55.69;99537.84;5169372;27;20088;-70
2021/08/08 05:38:10;;;;;;;26.23;13.27;;;;;;;23.03;56.28;99536.94;5169540;27;20110;-73
2021/08/08 05:40:36;;;;;;;27.38;12.57;;;;;;;22.82;56.70;99537.91;5150764;27;20113;-76
2021/08/08 05:43:02;;;;;;;30.75;12.70;;;;;;;22.72;57.04;99536.44;5166667;27;20182;-73
2021/08/08 05:45:31;;;;;;;30.02;13.00;;;;;;;22.63;57.29;99537.66;5168781;27;20051;-72
2021/08/08 05:47:58;;;;;;;28.15;13.27;;;;;;;22.59;57.83;99536.38;5150449;27;20145;-76
2021/08/08 05:50:28;;;;;;;37.53;16.80;;;;;;;22.70;58.39;99543.06;5132532;27;20048;-74
2021/08/08 05:52:55;;;;;;;35.75;13.55;;;;;;;22.74;58.38;99539.78;5150615;27;20046;-77
2021/08/08 05:55:22;;;;;;;20.98;11.95;;;;;;;22.62;57.63;99528.72;5150650;27;20046;-72
2021/08/08 05:57:48;;;;;;;29.92;12.40;;;;;;;22.58;58.05;99534.69;5132822;27;20039;-74
2021/08/08 06:00:15;;;;;;;23.63;11.82;;;;;;;22.67;59.19;99541.59;5070883;27;20086;-73
2021/08/08 06:02:41;;;;;;;23.10;11.65;;;;;;;22.59;60.01;99545.31;5148847;27;20444;-75
2021/08/08 06:05:09;;;;;;;23.25;12.93;;;;;;;22.40;60.10;99549.53;5121030;27;20042;-76
2021/08/08 06:07:35;;;;;;;36.40;13.02;;;;;;;22.49;61.44;99552.91;5137498;27;20054;-74
2021/08/08 06:10:01;;;;;;;32.22;13.15;;;;;;;22.45;61.14;99552.50;5156188;27;20038;-75
2021/08/08 06:12:28;;;;;;;;;;;;;;;22.21;62.13;99566.41;5120993;27;20050;-73
2021/08/08 06:14:54;;;;;;;28.85;12.50;;;;;;;22.07;63.50;99568.16;5137764;27;19915;-74
2021/08/08 06:17:21;;;;;;;32.17;13.73;;;;;;;21.89;63.72;99571.34;5137761;27;20129;-75
2021/08/08 06:19:47;;;;;;;26.98;14.13;;;;;;;21.79;63.86;99567.16;5136654;27;20114;-76
2021/08/08 06:22:14;;;;;;;27.73;14.40;;;;;;;21.74;63.20;99566.88;5116851;27;20047;-76
2021/08/08 06:24:41;;;;;;;42.45;20.50;;;;;;;21.67;63.41;99592.06;5137127;27;20383;-75
2021/08/08 06:27:08;;;;;;;37.40;18.30;;;;;;;21.61;63.00;99585.63;5140217;27;20055;-73
2021/08/08 06:29:37;;;;;;;34.40;16.15;;;;;;;21.54;63.55;99592.75;5128554;27;20067;-72
2021/08/08 06:32:05;;;;;;;33.58;16.27;;;;;;;21.48;64.09;99600.56;5107571;27;20031;-74
2021/08/08 06:34:31;;;;;;;;;;;;;;;21.44;63.66;99618.09;5130979;27;20046;-73
2021/08/08 06:36:57;;;;;;;34.45;17.17;;;;;;;21.47;64.47;99606.97;5133838;27;19915;-73
2021/08/08 06:39:23;;;;;;;33.50;16.77;;;;;;;21.53;65.53;99615.31;5148987;27;20031;-77
2021/08/08 06:41:49;;;;;;;31.45;16.40;;;;;;;21.61;65.54;99607.16;5136807;27;20068;-78
2021/08/08 06:44:17;;;;;;;31.85;16.67;;;;;;;21.73;64.84;99608.31;5136383;27;20178;-76
2021/08/08 06:46:43;;;;;;;28.80;16.15;;;;;;;21.80;64.50;99617.25;5118256;27;20468;-75
2021/08/08 06:49:11;;;;;;;39.65;17.17;;;;;;;21.90;64.95;99613.41;5136632;27;20584;-77
2021/08/08 06:51:37;;;;;;;37.47;16.55;;;;;;;22.01;65.11;99604.81;5155239;27;20042;-75
2021/08/08 06:54:02;;;;;;;35.05;15.25;;;;;;;22.27;64.07;99604.16;5153098;27;20126;-81
2021/08/08 06:56:29;;;;;;;33.03;16.40;;;;;;;22.36;63.38;99607.53;5133702;27;20554;-74
2021/08/08 06:58:55;;;;;;;35.20;16.48;;;;;;;22.50;63.41;99613.06;5135044;27;20082;-75
2021/08/08 07:01:22;;;;;;;31.42;15.70;;;;;;;22.94;62.58;99598.31;5147993;27;20039;-75
2021/08/08 07:03:47;;;;;;;31.67;16.00;;;;;;;23.23;61.23;99594.53;5132869;27;20038;-80
2021/08/08 07:06:14;;;;;;;37.55;16.05;;;;;;;23.18;61.59;99593.47;5136112;27;20372;-75
2021/08/08 07:08:40;;;;;;;34.42;14.73;;;;;;;23.10;62.11;99595.28;5135165;27;20045;-75
2021/08/08 07:11:05;;;;;;;33.30;15.38;;;;;;;23.22;61.48;99592.03;5136534;27;20126;-75
2021/08/08 07:13:31;;;;;;;33.28;16.10;;;;;;;23.24;61.47;99608.84;5154958;27;20046;-75
2021/08/08 07:15:57;;;;;;;31.02;16.20;;;;;;;23.25;61.68;99602.41;5136898;27;20042;-82
2021/08/08 07:18:23;;;;;;;36.67;16.77;;;;;;;23.24;61.78;99619.63;5136632;27;20042;-72
2021/08/08 07:20:49;;;;;;;38.28;16.50;;;;;;;23.27;61.91;99608.44;5136252;27;20053;-76
2021/08/08 07:23:15;;;;;;;30.23;15.55;;;;;;;23.97;60.98;99600.03;5136684;27;20050;-74
2021/08/08 07:25:41;;;;;;;36.38;15.88;;;;;;;25.04;57.76;99604.41;5137278;27;20544;-80
2021/08/08 07:28:08;;;;;;;33.95;15.85;;;;;;;25.28;56.23;99613.66;5137456;27;20376;-77
2021/08/08 07:30:34;;;;;;;28.40;14.93;;;;;;;25.23;56.22;99605.34;5136364;27;20043;-78
2021/08/08 07:33:01;;;;;;;30.73;14.98;;;;;;;24.89;56.89;99604.69;5154876;27;20408;-77
2021/08/08 07:35:27;;;;;;;28.15;14.82;;;;;;;24.69;57.83;99600.16;5137057;27;20095;-77
2021/08/08 07:37:53;;;;;;;48.35;20.95;;;;;;;24.64;58.41;99610.75;5136237;27;20129;-75
2021/08/08 07:40:20;;;;;;;40.92;15.93;;;;;;;24.34;58.52;99607.72;5119741;27;20487;-74
2021/08/08 07:42:49;;;;;;;34.90;15.43;;;;;;;24.16;59.96;99616.47;5136160;27;20102;-76
2021/08/08 07:45:17;;;;;;;38.47;16.88;;;;;;;24.17;60.40;99623.53;5135697;27;20057;-76
2021/08/08 07:47:43;;;;;;;33.60;15.93;;;;;;;24.39;60.09;99621.44;5136329;27;20042;-77
2021/08/08 07:50:10;;;;;;;39.97;14.97;;;;;;;24.55;59.71;99625.56;5136104;27;20319;-75
2021/08/08 07:52:36;;;;;;;25.30;14.57;;;;;;;24.39;60.21;99626.84;5135609;27;20042;-74
2021/08/08 07:55:05;;;;;;;37.80;15.93;;;;;;;24.32;61.36;99617.91;5136057;27;20046;-75
2021/08/08 07:57:31;;;;;;;28.85;15.52;;;;;;;24.09;61.48;99626.44;5154271;27;20035;-77
2021/08/08 07:59:57;;;;;;;36.67;16.85;;;;;;;23.93;62.25;99644.72;5136265;27;20042;-75
2021/08/08 08:02:23;;;;;;;37.47;16.17;;;;;;;23.79;62.90;99643.00;5136100;27;20700;-74
2021/08/08 08:04:49;;;;;;;29.70;15.70;;;;;;;23.85;63.41;99642.19;5135868;27;20520;-75
2021/08/08 08:07:15;;;;;;;40.63;17.75;;;;;;;23.75;63.65;99643.44;5154298;27;20130;-75
2021/08/08 08:09:41;;;;;;;37.53;17.63;;;;;;;23.65;63.77;99652.97;5153906;27;20492;-73
2021/08/08 08:12:07;;;;;;;42.75;18.13;;;;;;;23.48;64.66;99664.16;5135610;27;20053;-79
2021/08/08 08:14:33;;;;;;;38.92;18.17;;;;;;;23.36;65.57;99658.50;5135240;27;20043;-77
2021/08/08 08:16:59;;;;;;;35.42;17.92;;;;;;;23.55;64.81;99658.75;5153938;27;20062;-77
2021/08/08 08:19:26;;;;;;;36.15;18.95;;;;;;;23.86;64.42;99650.09;5135453;27;20077;-78
2021/08/08 08:21:52;;;;;;;37.17;18.25;;;;;;;24.05;63.97;99651.19;5154001;27;20087;-74
2021/08/08 08:24:18;;;;;;;38.95;18.55;;;;;;;24.20;63.68;99653.69;5128196;27;20500;-79
2021/08/08 08:26:44;;;;;;;46.53;20.27;;;;;;;24.37;63.17;99645.13;5114293;27;20112;-76
2021/08/08 08:29:10;;;;;;;36.85;18.95;;;;;;;24.43;63.73;99644.28;5132260;27;20035;-76
2021/08/08 08:31:36;;;;;;;39.63;19.92;;;;;;;24.73;63.05;99648.44;5132766;27;20039;-76
2021/08/08 08:34:02;;;;;;;42.60;21.63;;;;;;;24.93;62.27;99648.38;5114682;28;20126;-75
2021/08/08 08:36:28;;;;;;;40.05;20.98;;;;;;;25.03;62.27;99649.59;5114948;28;20039;-82
2021/08/08 08:38:54;;;;;;;67.82;37.20;;;;;;;25.13;61.15;99648.28;5133046;27;20173;-75
2021/08/08 08:41:27;;;;;;;46.63;25.33;;;;;;;25.12;61.24;99652.03;5114707;28;20042;-78
2021/08/08 08:43:54;;;;;;;47.33;22.52;;;;;;;25.13;60.86;99645.59;5114937;28;20050;-78
2021/08/08 08:46:24;;;;;;;42.20;20.60;;;;;;;25.16;60.88;99654.13;5113978;28;20545;-77
2021/08/08 08:48:53;;;;;;;39.65;18.42;;;;;;;25.10;60.45;99652.25;5114449;28;20104;-78
2021/08/08 08:51:25;;;;;;;45.58;17.00;;;;;;;24.97;60.24;99645.03;5097771;28;20127;-76
2021/08/08 08:53:51;;;;;;;29.55;15.10;;;;;;;25.23;60.03;99648.66;5114630;28;20043;-75
2021/08/08 08:56:17;;;;;;;22.77;14.75;;;;;;;25.29;59.25;99655.09;5132725;28;20043;-80
2021/08/08 08:58:42;;;;;;;30.00;15.95;;;;;;;25.31;59.90;99659.25;5114615;28;20552;-77
2021/08/08 09:01:08;;;;;;;32.13;16.20;;;;;;;25.49;59.08;99650.44;5114773;28;20065;-74
2021/08/08 09:03:53;;;;;;;32.80;15.27;;;;;;;25.62;58.10;99662.22;5133351;28;20049;-75
2021/08/08 09:06:20;;;;;;;33.97;16.67;;;;;;;25.53;58.59;99653.53;5115455;28;20120;-75
2021/08/08 09:08:45;;;;;;;32.83;17.02;;;;;;;25.18;57.90;99662.00;5116565;28;20051;-78
2021/08/08 09:11:11;;;;;;;32.15;17.00;;;;;;;25.02;58.25;99658.75;5116654;28;20039;-77
2021/08/08 09:13:57;;;;;;;25.08;13.93;;;;;;;24.70;58.44;99664.03;5114971;28;20043;-77
2021/08/08 09:16:40;;;;;;;28.33;14.90;;;;;;;24.69;58.54;99659.66;5115340;28;20051;-73
2021/08/08 09:19:18;;;;;;;25.77;15.40;;;;;;;24.47;59.43;99661.75;5114740;28;20062;-75
2021/08/08 09:21:45;;;;;;;30.60;15.05;;;;;;;24.49;59.63;99669.66;5114345;28;20047;-72
2021/08/08 09:24:24;;;;;;;22.30;12.82;;;;;;;24.34;59.75;99678.81;5113956;28;20077;-76
2021/08/08 09:26:59;;;;;;;30.60;14.45;;;;;;;24.30;60.45;99676.75;5114244;28;20039;-75
2021/08/08 09:29:25;;;;;;;23.42;13.98;;;;;;;24.41;60.35;99673.41;5133148;28;20043;-79
2021/08/08 09:31:51;;;;;;;28.33;13.50;;;;;;;24.66;59.13;99670.91;5114552;27;20092;-78
2021/08/08 09:34:24;;;;;;;44.22;23.23;;;;;;;24.97;58.22;99677.50;5118367;27;20496;-77
2021/08/08 09:36:51;;;;;;;34.15;17.25;;;;;;;25.24;57.10;99677.41;5136237;27;20055;-78
2021/08/08 09:39:32;;;;;;;27.92;17.02;;;;;;;25.44;55.62;99671.91;5136768;27;20178;-75
2021/08/08 09:42:10;;;;;;;24.88;12.18;;;;;;;25.44;55.65;99681.94;5118120;27;20045;-74
2021/08/08 09:44:37;;;;;;;23.35;11.77;;;;;;;25.48;55.71;99683.16;5136292;27;20119;-79
2021/08/08 09:47:03;;;;;;;23.50;13.98;;;;;;;26.10;54.54;99685.28;5136792;27;20492;-74
2021/08/08 09:49:29;;;;;;;22.23;13.48;;;;;;;26.47;53.16;99679.97;5136923;27;20045;-75
2021/08/08 09:51:55;;;;;;;19.27;10.93;;;;;;;26.84;51.70;99674.59;5136114;27;20134;-76
2021/08/08 09:54:21;;;;;;;25.42;11.55;;;;;;;26.86;52.06;99672.50;5136279;27;20071;-77
2021/08/08 09:56:57;;;;;;;21.98;11.82;;;;;;;26.29;51.42;99668.03;5135600;27;20050;-75
2021/08/08 09:59:24;;;;;;;21.27;9.95;;;;;;;26.04;52.06;99678.81;5136187;27;20071;-74
2021/08/08 10:01:50;;;;;;;28.73;13.57;;;;;;;25.43;52.95;99688.38;5136096;27;20050;-75
2021/08/08 10:04:16;;;;;;;18.70;9.82;;;;;;;25.13;53.65;99680.78;5136054;27;20449;-74
2021/08/08 10:06:45;;;;;;;43.88;21.25;;;;;;;24.85;54.12;99684.63;5135844;27;20495;-76
2021/08/08 10:09:11;;;;;;;22.73;10.88;;;;;;;24.86;54.52;99687.09;5136447;27;20059;-77
2021/08/08 10:11:38;;;;;;;34.42;15.38;;;;;;;24.66;55.70;99692.56;5135831;27;20119;-74
2021/08/08 10:14:05;;;;;;;28.40;14.20;;;;;;;24.83;55.54;99698.34;5117602;27;20476;-75
2021/08/08 10:16:33;;;;;;;28.92;13.38;;;;;;;24.82;55.90;99690.44;5117244;27;20092;-78
2021/08/08 10:19:03;;;;;;;30.63;14.55;;;;;;;24.71;56.43;99695.47;5100384;27;20043;-76
2021/08/08 10:21:33;;;;;;;34.90;17.55;;;;;;;24.64;56.13;99694.59;5135656;27;20070;-76
2021/08/08 10:24:02;;;;;;;37.47;16.00;;;;;;;24.51;56.30;99700.88;5135735;27;20484;-77
2021/08/08 10:26:29;;;;;;;19.92;11.07;;;;;;;24.37;56.49;99701.91;5117550;27;20067;-76
2021/08/08 10:28:57;;;;;;;20.30;11.23;;;;;;;24.32;57.24;99701.69;5116947;27;20053;-75
2021/08/08 10:31:24;;;;;;;22.70;12.73;;;;;;;24.29;57.21;99697.53;5117407;27;20043;-80
2021/08/08 10:33:51;;;;;;;21.77;11.10;;;;;;;24.42;56.96;99698.59;5117054;27;20047;-74
2021/08/08 10:36:40;;;;;;;25.00;12.32;;;;;;;24.39;57.00;99702.53;5135339;27;20046;-76
2021/08/08 10:39:15;;;;;;;25.30;12.50;;;;;;;24.34;58.01;99699.63;5135124;27;20445;-76
2021/08/08 10:41:53;;;;;;;21.58;10.88;;;;;;;24.61;57.65;99697.75;5135181;27;20039;-73
2021/08/08 10:44:20;;;;;;;18.50;10.50;;;;;;;24.70;57.13;99699.19;5135127;27;20142;-74
2021/08/08 10:46:51;;;;;;;25.33;10.65;;;;;;;24.81;57.07;99688.78;5135299;27;20054;-76
2021/08/08 10:49:32;;;;;;;22.08;10.40;;;;;;;25.01;56.55;99689.56;5116888;27;20134;-74
2021/08/08 10:52:01;;;;;;;21.77;10.75;;;;;;;25.14;57.10;99685.16;5134644;27;20043;-74
2021/08/08 10:54:44;;;;;;;28.60;12.23;;;;;;;25.20;56.34;99705.94;5135156;27;20488;-73
2021/08/08 10:57:11;;;;;;;22.58;10.05;;;;;;;25.08;55.66;99710.38;5134857;27;20050;-76
2021/08/08 10:59:47;;;;;;;54.72;26.20;;;;;;;25.18;55.37;99716.16;5134896;27;20038;-81
2021/08/08 11:02:15;;;;;;;25.50;13.48;;;;;;;25.26;55.40;99715.94;5117295;27;20050;-75
2021/08/08 11:04:42;;;;;;;20.02;9.48;;;;;;;25.32;55.10;99709.66;5134738;27;20115;-76
2021/08/08 11:07:09;;;;;;;14.50;8.90;;;;;;;25.14;54.34;99715.75;5134646;27;20379;-76
2021/08/08 11:09:39;;;;;;;19.10;9.80;;;;;;;24.92;55.28;99712.47;5134633;27;20051;-74
2021/08/08 11:12:06;;;;;;;21.67;10.38;;;;;;;24.62;55.71;99712.91;5134616;27;20296;-76
2021/08/08 11:14:32;;;;;;;16.38;8.30;;;;;;;24.48;56.17;99714.78;5134666;27;20039;-75
2021/08/08 11:17:05;;;;;;;14.20;8.10;;;;;;;24.39;56.05;99716.88;5134137;27;20047;-75
2021/08/08 11:19:37;;;;;;;27.55;15.75;;;;;;;24.28;55.95;99722.91;5134494;27;20035;-76
2021/08/08 11:22:06;;;;;;;21.63;9.05;;;;;;;24.09;56.97;99719.16;5115849;27;20038;-75
2021/08/08 11:24:32;;;;;;;17.02;8.90;;;;;;;24.04;56.83;99717.06;5134403;27;20047;-75
2021/08/08 11:26:58;;;;;;;15.60;8.80;;;;;;;23.85;57.21;99718.66;5133931;27;20510;-79